createdAt,value
2022-11-10T00:03:17.031Z,11.4
2022-11-10T00:09:06.762Z,11.4
2022-11-10T00:14:06.763Z,11.5
2022-11-10T00:19:06.767Z,11.6
2022-11-10T00:24:16.998Z,11.4
2022-11-10T00:30:06.733Z,11.1
2022-11-10T00:35:06.839Z,11.2
2022-11-10T00:40:17.031Z,11.2
2022-11-10T00:45:18.944Z,11.3
2022-11-10T00:51:06.758Z,11.5
2022-11-10T00:56:07.191Z,11.2
2022-11-10T01:01:17.223Z,11.2
2022-11-10T01:06:17.177Z,11.1
2022-11-10T01:12:06.961Z,11.1
2022-11-10T01:17:16.960Z,10.8
2022-11-10T01:22:17.162Z,10.5
2022-11-10T01:27:17.189Z,10.2
2022-11-10T01:32:17.189Z,10.2
2022-11-10T01:38:06.789Z,10
2022-11-10T01:43:17.168Z,10
2022-11-10T01:49:06.693Z,10.2
2022-11-10T01:54:06.898Z,10.5
2022-11-10T01:59:07.090Z,10.7
2022-11-10T02:04:17.246Z,10.5
2022-11-10T02:10:06.856Z,10.6
2022-11-10T02:15:06.909Z,10.7
2022-11-10T02:20:16.962Z,10.8
2022-11-10T02:25:17.171Z,10.9
2022-11-10T02:30:17.230Z,10.9
2022-11-10T02:36:06.975Z,10.8
2022-11-10T02:41:17.069Z,11
2022-11-10T02:46:17.212Z,10.9
2022-11-10T02:51:17.185Z,11
2022-11-10T02:56:17.255Z,11.2
2022-11-10T03:02:07.547Z,10.9
2022-11-10T03:07:17.239Z,11
2022-11-10T03:13:06.773Z,11
2022-11-10T03:18:06.980Z,10.9
2022-11-10T03:23:07.599Z,10.8
2022-11-10T03:28:17.035Z,10.7
2022-11-10T03:33:17.204Z,10.8
2022-11-10T03:38:17.224Z,10.6
2022-11-10T03:44:06.955Z,10.4
2022-11-10T03:49:17.179Z,10.6
2022-11-10T03:54:17.176Z,10.5
2022-11-10T04:00:06.988Z,10.6
2022-11-10T04:05:17.008Z,10.6
2022-11-10T04:10:17.174Z,10.4
2022-11-10T04:16:06.665Z,10.3
2022-11-10T04:21:07.000Z,10.3
2022-11-10T04:26:17.003Z,10.3
2022-11-10T04:31:17.185Z,10.5
2022-11-10T04:37:06.743Z,10.5
2022-11-10T04:42:07.002Z,10.5
2022-11-10T04:47:17.188Z,10.5
2022-11-10T04:53:06.934Z,10.6
2022-11-10T04:58:17.193Z,10.6
2022-11-10T05:04:06.920Z,10.5
2022-11-10T05:09:06.992Z,10.4
2022-11-10T05:14:17.192Z,10.1
2022-11-10T05:20:06.627Z,10.3
2022-11-10T05:25:06.926Z,10.5
2022-11-10T05:30:06.921Z,10.5
2022-11-10T05:35:17.172Z,10.6
2022-11-10T05:41:07.218Z,10.4
2022-11-10T05:46:16.984Z,10.4
2022-11-10T05:51:17.285Z,10.2
2022-11-10T05:57:06.737Z,9.8
2022-11-10T06:02:16.958Z,9.7
2022-11-10T06:07:17.027Z,9.8
2022-11-10T06:12:17.061Z,9.7
2022-11-10T06:18:06.699Z,9.9
2022-11-10T06:23:16.980Z,9.6
2022-11-10T06:28:17.012Z,9.7
2022-11-10T06:34:07.330Z,9.6
2022-11-10T06:39:17.004Z,9.9
2022-11-10T06:45:06.673Z,9.9
2022-11-10T06:50:06.673Z,10.1
2022-11-10T06:55:06.746Z,10.2
2022-11-10T07:00:07.047Z,10.1
2022-11-10T07:05:17.086Z,9.9
2022-11-10T07:12:17.003Z,9.8
2022-11-10T07:18:06.930Z,9.9
2022-11-10T07:23:17.214Z,10.1
2022-11-10T07:29:06.920Z,10
2022-11-10T07:34:06.975Z,10.1
2022-11-10T07:39:17.009Z,10.4
2022-11-10T07:45:06.681Z,10.9
2022-11-10T07:50:06.896Z,10.6
2022-11-10T07:55:17.029Z,11
2022-11-10T08:00:17.175Z,11.1
2022-11-10T08:06:06.678Z,11.3
2022-11-10T08:11:06.720Z,11.5
2022-11-10T08:16:06.983Z,11.4
2022-11-10T08:21:17.220Z,11.6
2022-11-10T08:27:07.154Z,11.9
2022-11-10T08:32:07.269Z,11.8
2022-11-10T08:37:17.201Z,11.4
2022-11-10T08:43:06.900Z,11.7
2022-11-10T08:48:06.987Z,12
2022-11-10T08:53:07.005Z,11.9
2022-11-10T08:58:07.023Z,12.2
2022-11-10T09:03:07.213Z,12.1
2022-11-10T09:08:17.357Z,12.2
2022-11-10T09:14:07.020Z,12.2
2022-11-10T09:19:20.077Z,12.4
2022-11-10T09:25:06.665Z,12.6
2022-11-10T09:30:06.929Z,12.7
2022-11-10T09:35:07.046Z,13.3
2022-11-10T09:40:17.356Z,14
2022-11-10T09:46:07.004Z,13.8
2022-11-10T09:51:07.044Z,13.5
2022-11-10T09:56:17.156Z,13.2
2022-11-10T10:01:17.228Z,13
2022-11-10T10:07:11.167Z,13.1
2022-11-10T10:12:06.755Z,13.4
2022-11-10T10:17:06.861Z,13.5
2022-11-10T10:22:06.992Z,13.3
2022-11-10T10:27:11.184Z,13.5
2022-11-10T10:32:17.251Z,13.7
2022-11-10T10:38:06.718Z,13.6
2022-11-10T10:43:06.775Z,14
2022-11-10T10:48:16.935Z,13.9
2022-11-10T10:53:17.196Z,13.9
2022-11-10T10:59:06.759Z,13.9
2022-11-10T11:04:06.889Z,14
2022-11-10T11:09:17.174Z,13.9
2022-11-10T11:14:17.296Z,13.9
2022-11-10T11:20:06.909Z,13.8
2022-11-10T11:25:06.924Z,14
2022-11-10T11:30:17.199Z,14.4
2022-11-10T11:36:06.917Z,14.2
2022-11-10T11:41:17.162Z,14.1
2022-11-10T11:46:17.221Z,14.2
2022-11-10T11:51:17.204Z,13.9
2022-11-10T11:57:06.936Z,14.3
2022-11-10T12:02:17.282Z,14.1
2022-11-10T12:08:06.847Z,14.2
2022-11-10T12:13:16.929Z,14.3
2022-11-10T12:18:16.989Z,14.4
2022-11-10T12:23:16.961Z,14
2022-11-10T12:28:16.996Z,14.2
2022-11-10T12:34:06.916Z,14.3
2022-11-10T12:39:17.091Z,14.3
2022-11-10T12:45:06.707Z,14.3
2022-11-10T12:50:17.004Z,14
2022-11-10T12:55:16.972Z,14.1
2022-11-10T13:00:21.250Z,14.1
2022-11-10T13:06:06.833Z,14.3
2022-11-10T13:12:06.961Z,14.3
2022-11-10T13:17:16.992Z,14.6
2022-11-10T13:22:19.509Z,14.3
2022-11-10T13:27:17.162Z,14.3
2022-11-10T13:33:06.946Z,14.1
2022-11-10T13:38:17.184Z,14.1
2022-11-10T13:43:17.175Z,14.3
2022-11-10T13:48:17.171Z,14.1
2022-11-10T13:53:17.212Z,14.1
2022-11-10T13:59:06.921Z,14.2
2022-11-10T14:04:17.265Z,14
2022-11-10T14:09:17.226Z,13.9
2022-11-10T14:14:17.370Z,13.8
2022-11-10T14:20:07.260Z,13.6
2022-11-10T14:25:17.176Z,13.6
2022-11-10T14:30:17.342Z,13.6
2022-11-10T14:35:17.290Z,13.4
2022-11-10T14:41:06.888Z,13.6
2022-11-10T14:46:07.049Z,13.2
2022-11-10T14:51:17.203Z,13.4
2022-11-10T14:57:06.918Z,13.3
2022-11-10T15:02:07.275Z,13
2022-11-10T15:07:17.059Z,13
2022-11-10T15:12:17.201Z,12.9
2022-11-10T15:17:17.416Z,12.6
2022-11-10T15:23:06.901Z,12.6
2022-11-10T15:28:07.101Z,12
2022-11-10T15:33:17.319Z,12
2022-11-10T15:38:20.716Z,11.9
2022-11-10T15:44:17.203Z,11.8
2022-11-10T15:49:17.324Z,12.1
2022-11-10T15:54:17.233Z,11.8
2022-11-10T16:00:07.008Z,11.6
2022-11-10T16:05:17.352Z,11.7
2022-11-10T16:10:17.491Z,11.4
2022-11-10T16:16:06.925Z,11.4
2022-11-10T16:21:17.306Z,11.1
2022-11-10T16:26:17.204Z,11.4
2022-11-10T16:31:17.198Z,11.3
2022-11-10T16:37:07.034Z,10.9
2022-11-10T16:42:07.004Z,10.9
2022-11-10T16:47:16.953Z,10.8
2022-11-10T16:52:17.154Z,10.6
2022-11-10T16:57:17.227Z,10.8
2022-11-10T17:03:06.934Z,10.6
2022-11-10T17:08:07.072Z,10.5
2022-11-10T17:13:17.019Z,10.9
2022-11-10T17:19:06.911Z,10.6
2022-11-10T17:24:07.129Z,10.5
2022-11-10T17:29:17.229Z,10.2
2022-11-10T17:35:06.885Z,10.3
2022-11-10T17:40:07.092Z,10.2
2022-11-10T17:45:07.114Z,10.3
2022-11-10T17:50:17.174Z,10
2022-11-10T17:56:07.027Z,9.8
2022-11-10T18:01:17.267Z,9.4
2022-11-10T18:07:06.750Z,9.5
2022-11-10T18:12:07.295Z,9.4
2022-11-10T18:17:17.008Z,9.1
2022-11-10T18:22:17.176Z,9
2022-11-10T18:28:06.779Z,9.1
2022-11-10T18:33:06.682Z,9.1
2022-11-10T18:38:16.997Z,9.1
2022-11-10T18:43:17.106Z,9.1
2022-11-10T18:48:28.336Z,8.8
2022-11-10T18:54:06.805Z,8.8
2022-11-10T18:59:07.115Z,8.7
2022-11-10T19:04:16.988Z,8.4
2022-11-10T19:09:16.985Z,8.6
2022-11-10T19:14:17.163Z,8.6
2022-11-10T19:20:06.776Z,8.6
2022-11-10T19:25:17.055Z,8.7
2022-11-10T19:31:06.783Z,8.7
2022-11-10T19:36:06.675Z,8.7
2022-11-10T19:41:06.729Z,8.8
2022-11-10T19:46:06.773Z,8.7
2022-11-10T19:51:06.946Z,8.7
2022-11-10T19:56:17.242Z,8.8
2022-11-10T20:01:17.365Z,8.6
2022-11-10T20:07:06.936Z,8.5
2022-11-10T20:12:17.060Z,8.5
2022-11-10T20:18:06.775Z,8.4
2022-11-10T20:23:17.119Z,8.4
2022-11-10T20:28:17.175Z,8.2
2022-11-10T20:33:17.195Z,8.1
2022-11-10T20:38:17.201Z,8
2022-11-10T20:44:06.839Z,8
2022-11-10T20:49:06.730Z,8.2
2022-11-10T20:54:17.160Z,8.3
2022-11-10T21:00:06.809Z,8.2
2022-11-10T21:05:06.699Z,8.2
2022-11-10T21:10:16.972Z,7.9
2022-11-10T21:15:17.146Z,8.2
2022-11-10T21:20:17.051Z,8.1
2022-11-10T21:25:17.275Z,7.9
2022-11-10T21:31:06.830Z,7.7
2022-11-10T21:36:17.210Z,7.7
2022-11-10T21:42:06.713Z,7.8
2022-11-10T21:47:06.916Z,7.7
2022-11-10T21:52:17.190Z,7.4
2022-11-10T21:58:06.697Z,7.4
2022-11-10T22:03:06.844Z,7.2
2022-11-10T22:08:20.927Z,7.3
2022-11-10T22:14:06.676Z,7.1
2022-11-10T22:19:06.893Z,6.9
2022-11-10T22:24:06.828Z,7
2022-11-10T22:29:17.209Z,6.9
2022-11-10T22:35:06.835Z,6.8
2022-11-10T22:40:17.178Z,6.7
2022-11-10T22:45:17.197Z,7
2022-11-10T22:51:06.910Z,6.9
2022-11-10T22:56:17.193Z,6.5
2022-11-10T23:02:06.822Z,6.6
2022-11-10T23:07:17.369Z,6.4
2022-11-10T23:13:06.765Z,6.5
2022-11-10T23:18:17.155Z,6.6
2022-11-10T23:24:07.016Z,6.8
2022-11-10T23:29:17.191Z,6.4
2022-11-10T23:34:17.206Z,6.4
2022-11-10T23:40:06.786Z,6.4
2022-11-10T23:45:06.675Z,6.4
2022-11-10T23:50:17.183Z,6.5
2022-11-10T23:55:17.312Z,6.2
